Time;durP1;ratioP1;P1;durP2;ratioP2;P2;SDS_P1;SDS_P2;PMS_P1;PMS_P2;Temp;Humidity;BMP_temperature;BMP_pressure;BME280_temperature;BME280_humidity;BME280_pressure;Samples;Min_cycle;Max_cycle;Signal;HPM_P1;HPM_P2
2022/11/10 00:00:52;;;;;;;22.52;7.85;;;9.90;99.90;;;;;;5107603;27;20050;-79
2022/11/10 00:03:17;;;;;;;16.27;6.70;;;9.90;99.90;;;;;;5113431;27;20255;-80
2022/11/10 00:06:03;;;;;;;15.82;6.20;;;9.90;99.90;;;;;;5111046;27;20081;-80
2022/11/10 00:08:32;;;;;;;16.42;6.50;;;9.90;99.90;;;;;;5129439;27;20103;-80
2022/11/10 00:10:58;;;;;;;16.73;6.93;;;9.80;99.90;;;;;;5097996;27;20046;-80
2022/11/10 00:13:30;;;;;;;18.45;7.07;;;9.90;99.90;;;;;;5106189;27;20058;-80
2022/11/10 00:18:45;;;;;;;18.75;7.78;;;9.80;99.90;;;;;;5128880;27;20058;-80
2022/11/10 00:21:13;;;;;;;18.80;7.40;;;9.70;99.90;;;;;;5131152;27;20445;-80
2022/11/10 00:23:39;;;;;;;18.02;6.95;;;9.70;99.90;;;;;;5119940;27;20047;-80
2022/11/10 00:26:14;;;;;;;26.75;10.23;;;9.70;99.90;;;;;;5121346;27;20057;-80
2022/11/10 00:28:41;;;;;;;14.35;7.72;;;9.70;99.90;;;;;;5108438;27;20050;-80
2022/11/10 00:31:07;;;;;;;20.13;8.07;;;9.60;99.90;;;;;;5113338;27;20043;-81
2022/11/10 00:33:35;;;;;;;16.75;7.28;;;9.60;99.90;;;;;;5126025;27;20054;-80
2022/11/10 00:36:01;;;;;;;18.33;7.25;;;9.60;99.90;;;;;;5109944;27;20093;-80
2022/11/10 00:38:26;;;;;;;18.00;7.38;;;9.60;99.90;;;;;;5130372;27;20038;-80
2022/11/10 00:40:52;;;;;;;21.92;7.97;;;9.50;99.90;;;;;;5096219;27;20047;-80
2022/11/10 00:43:21;;;;;;;20.27;8.32;;;9.50;99.90;;;;;;5128233;27;20512;-79
2022/11/10 00:46:06;;;;;;;21.48;8.30;;;9.50;99.90;;;;;;5126450;27;20512;-80
2022/11/10 00:48:32;;;;;;;20.73;8.73;;;9.50;99.90;;;;;;5114979;27;20054;-80
2022/11/10 00:50:57;;;;;;;19.52;8.88;;;9.50;99.90;;;;;;5121570;27;20042;-79
2022/11/10 00:53:24;;;;;;;19.77;8.95;;;9.50;99.90;;;;;;5084357;27;20043;-79
2022/11/10 00:55:49;;;;;;;21.52;8.65;;;9.50;99.90;;;;;;5102502;27;20050;-79
2022/11/10 00:58:16;;;;;;;24.40;9.30;;;9.40;99.90;;;;;;5089941;27;20146;-80
2022/11/10 01:00:42;;;;;;;18.55;8.57;;;9.50;99.90;;;;;;5109117;27;20146;-80
2022/11/10 01:03:13;;;;;;;20.95;9.20;;;9.50;99.90;;;;;;5129594;27;20107;-80
2022/11/10 01:05:39;;;;;;;21.55;9.57;;;9.40;99.90;;;;;;5109463;27;20466;-80
2022/11/10 01:08:05;;;;;;;22.45;10.35;;;9.40;99.90;;;;;;5127029;27;20043;-80
2022/11/10 01:10:31;;;;;;;23.10;9.15;;;9.40;99.90;;;;;;5095679;27;20133;-80
2022/11/10 01:12:57;;;;;;;18.52;8.82;;;9.40;99.90;;;;;;5106386;27;20122;-80
2022/11/10 01:15:23;;;;;;;19.52;8.98;;;9.40;99.90;;;;;;5123998;27;20090;-80
2022/11/10 01:17:54;;;;;;;22.80;8.98;;;9.30;99.90;;;;;;5112537;27;20052;-79
2022/11/10 01:20:23;;;;;;;19.00;8.93;;;9.30;99.90;;;;;;5121170;27;20135;-80
2022/11/10 01:22:52;;;;;;;21.30;10.38;;;9.30;99.90;;;;;;5117097;27;20050;-80
2022/11/10 01:25:18;;;;;;;27.55;10.68;;;9.30;99.90;;;;;;5095945;27;20520;-80
2022/11/10 01:27:44;;;;;;;24.05;9.35;;;9.30;99.90;;;;;;5115515;27;20038;-80
2022/11/10 01:30:13;;;;;;;21.48;8.95;;;9.30;99.90;;;;;;5091362;27;20034;-80
2022/11/10 01:32:39;;;;;;;22.67;10.05;;;9.20;99.90;;;;;;5124495;27;20058;-80
2022/11/10 01:35:05;;;;;;;22.85;8.63;;;9.20;99.90;;;;;;5103837;27;20058;-79
2022/11/10 01:37:31;;;;;;;23.15;9.43;;;9.20;99.90;;;;;;5071465;27;20381;-80
2022/11/10 01:39:57;;;;;;;20.23;8.85;;;9.20;99.90;;;;;;5132814;27;20516;-80
2022/11/10 01:42:24;;;;;;;27.33;11.02;;;9.20;99.90;;;;;;5115081;27;20032;-80
2022/11/10 01:45:18;;;;;;;22.42;10.15;;;9.20;99.90;;;;;;5153541;27;20055;-79
2022/11/10 01:47:44;;;;;;;23.02;10.23;;;9.20;99.90;;;;;;5153425;27;20058;-80
2022/11/10 01:50:10;;;;;;;20.77;9.88;;;9.10;99.90;;;;;;5088395;27;20043;-80
2022/11/10 01:52:36;;;;;;;25.67;12.15;;;9.20;99.90;;;;;;5133988;27;20078;-80
2022/11/10 01:55:02;;;;;;;28.02;12.27;;;9.20;99.90;;;;;;5133137;27;20069;-80
2022/11/10 01:57:31;;;;;;;27.65;11.52;;;9.10;99.90;;;;;;5120948;27;20035;-79
2022/11/10 01:59:56;;;;;;;18.88;10.40;;;9.10;99.90;;;;;;5112978;27;20103;-73
2022/11/10 02:02:38;;;;;;;24.85;11.30;;;9.10;99.90;;;;;;5120513;27;20043;-73
2022/11/10 02:05:05;;;;;;;24.73;10.85;;;9.20;99.90;;;;;;5114054;27;20528;-73
2022/11/10 02:07:34;;;;;;;24.95;11.25;;;9.10;99.90;;;;;;5097275;27;20591;-79
2022/11/10 02:10:04;;;;;;;19.83;9.35;;;9.10;99.90;;;;;;5102807;27;20051;-80
2022/11/10 02:12:37;;;;;;;19.50;9.23;;;9.10;99.90;;;;;;5101261;27;20476;-79
2022/11/10 02:15:08;;;;;;;25.30;9.68;;;9.10;99.90;;;;;;5121998;27;20778;-80
2022/11/10 02:17:34;;;;;;;23.20;10.23;;;9.10;99.90;;;;;;5100166;27;20100;-80
2022/11/10 02:20:08;;;;;;;23.20;9.07;;;9.10;99.90;;;;;;5116979;27;20066;-80
2022/11/10 02:22:35;;;;;;;20.90;8.70;;;9.10;99.90;;;;;;5108166;27;20069;-80
2022/11/10 02:25:01;;;;;;;23.15;9.18;;;9.10;99.90;;;;;;5125860;27;20043;-80
2022/11/10 02:27:27;;;;;;;27.25;10.85;;;9.10;99.90;;;;;;5086365;27;20460;-80
2022/11/10 02:29:53;;;;;;;26.17;10.02;;;9.10;99.90;;;;;;5098203;27;20074;-79
2022/11/10 02:32:19;;;;;;;19.35;8.10;;;9.10;99.90;;;;;;5120075;27;20081;-80
2022/11/10 02:34:44;;;;;;;17.40;8.25;;;9.10;99.90;;;;;;5102308;27;20053;-80
2022/11/10 02:37:10;;;;;;;20.42;8.30;;;9.10;99.90;;;;;;5119941;27;20485;-80
2022/11/10 02:39:36;;;;;;;17.98;7.68;;;9.10;99.90;;;;;;5097090;27;20498;-80
2022/11/10 02:42:03;;;;;;;20.83;8.60;;;9.20;99.90;;;;;;5101217;27;20078;-80
2022/11/10 02:44:29;;;;;;;20.42;8.23;;;9.20;99.90;;;;;;5118814;27;20510;-80
2022/11/10 02:46:55;;;;;;;17.45;7.55;;;9.20;99.90;;;;;;5122632;27;20055;-80
2022/11/10 02:49:21;;;;;;;18.17;7.75;;;9.20;99.90;;;;;;5084154;27;20051;-80
2022/11/10 02:51:46;;;;;;;21.63;7.95;;;9.20;99.90;;;;;;5111733;27;20043;-80
2022/11/10 02:54:12;;;;;;;18.15;7.35;;;9.20;99.90;;;;;;5134789;27;20058;-73
2022/11/10 02:56:41;;;;;;;20.30;8.25;;;9.20;99.90;;;;;;5129697;27;20072;-80
2022/11/10 02:59:07;;;;;;;19.40;8.00;;;9.20;99.90;;;;;;5091764;27;20138;-79
2022/11/10 03:01:32;;;;;;;26.27;10.02;;;9.20;99.90;;;;;;5131041;27;20118;-80
2022/11/10 03:04:01;;;;;;;22.33;9.85;;;9.20;99.90;;;;;;5091045;27;20326;-80
2022/11/10 03:06:27;;;;;;;26.27;9.82;;;9.20;99.90;;;;;;5096962;28;20461;-80
2022/11/10 03:08:53;;;;;;;22.48;9.65;;;9.20;99.90;;;;;;5089998;27;21216;-80
2022/11/10 03:11:18;;;;;;;22.35;9.77;;;9.20;99.90;;;;;;5104836;28;20053;-80
2022/11/10 03:13:44;;;;;;;27.35;11.75;;;9.20;99.90;;;;;;5104770;28;20047;-80
2022/11/10 03:16:10;;;;;;;32.42;11.52;;;9.20;99.90;;;;;;5078098;28;20134;-79
2022/11/10 03:18:36;;;;;;;27.67;10.88;;;9.20;99.90;;;;;;5131063;27;20095;-80
2022/11/10 03:21:02;;;;;;;25.85;11.15;;;9.20;99.90;;;;;;5113595;27;20047;-80
2022/11/10 03:23:27;;;;;;;20.65;10.95;;;9.30;99.90;;;;;;5117497;27;20040;-80
2022/11/10 03:25:53;;;;;;;27.65;12.35;;;9.30;99.90;;;;;;5115880;27;20046;-80
2022/11/10 03:28:19;;;;;;;27.00;11.60;;;9.30;99.90;;;;;;5120864;27;20451;-80
2022/11/10 03:30:45;;;;;;;24.63;11.48;;;9.20;99.90;;;;;;5098704;27;20048;-80
2022/11/10 03:33:10;;;;;;;24.13;11.07;;;9.30;99.90;;;;;;5103463;28;20243;-80
2022/11/10 03:35:40;;;;;;;25.75;11.38;;;9.30;99.90;;;;;;5112411;27;20043;-80
2022/11/10 03:38:05;;;;;;;26.48;11.25;;;9.30;99.90;;;;;;5145956;27;20071;-80
2022/11/10 03:40:31;;;;;;;28.70;12.20;;;9.30;99.90;;;;;;5079324;28;20508;-81
2022/11/10 03:42:57;;;;;;;30.45;12.57;;;9.30;99.90;;;;;;5109311;27;20486;-80
2022/11/10 03:45:23;;;;;;;25.25;12.60;;;9.30;99.90;;;;;;5097898;28;20041;-80
2022/11/10 03:47:49;;;;;;;29.58;12.88;;;9.30;99.90;;;;;;5118691;27;20051;-80
2022/11/10 03:50:15;;;;;;;28.65;12.82;;;9.40;99.90;;;;;;5097521;27;20426;-80
2022/11/10 03:52:48;;;;;;;26.77;13.10;;;9.30;99.90;;;;;;5111475;27;20055;-80
2022/11/10 03:55:16;;;;;;;22.95;11.18;;;9.30;99.90;;;;;;5111914;28;20042;-80
2022/11/10 03:57:42;;;;;;;26.52;11.70;;;9.30;99.90;;;;;;5092674;28;20409;-81
2022/11/10 04:00:11;;;;;;;31.80;12.50;;;9.20;99.90;;;;;;5112013;27;20059;-80
2022/11/10 04:02:37;;;;;;;27.48;12.68;;;9.20;99.90;;;;;;5109679;27;20035;-80
2022/11/10 04:10:40;;;;;;;27.95;13.88;;;9.30;99.90;;;;;;5140124;27;20426;-79
2022/11/10 04:15:51;;;;;;;28.67;13.68;;;9.30;99.90;;;;;;5113454;27;20516;-81
2022/11/10 04:18:19;;;;;;;31.45;14.10;;;9.30;99.90;;;;;;5118006;27;20675;-73
2022/11/10 04:20:46;;;;;;;28.80;13.48;;;9.40;99.90;;;;;;5104027;28;20071;-80
2022/11/10 04:23:25;;;;;;;29.33;13.82;;;9.40;99.90;;;;;;5107298;27;20051;-80
2022/11/10 04:28:37;;;;;;;27.80;14.50;;;9.40;99.90;;;;;;5104455;27;20051;-80
2022/11/10 04:31:03;;;;;;;27.67;13.55;;;9.40;99.90;;;;;;5116110;27;20108;-80
2022/11/10 04:33:29;;;;;;;34.83;14.55;;;9.40;99.90;;;;;;5097595;28;20047;-80
2022/11/10 04:36:00;;;;;;;29.58;13.63;;;9.40;99.90;;;;;;5118568;27;20095;-80
2022/11/10 04:38:27;;;;;;;28.63;13.70;;;9.50;99.90;;;;;;5113907;27;20100;-80
2022/11/10 04:40:59;;;;;;;30.98;13.40;;;9.50;99.90;;;;;;5120640;27;20498;-81
2022/11/10 04:43:25;;;;;;;30.85;14.05;;;9.50;99.90;;;;;;5109692;27;20044;-80
2022/11/10 04:45:55;;;;;;;37.85;15.15;;;9.50;99.90;;;;;;5135720;27;20059;-80
2022/11/10 04:48:21;;;;;;;27.90;13.90;;;9.50;99.90;;;;;;5120909;27;20126;-81
2022/11/10 04:50:46;;;;;;;26.50;12.73;;;9.50;99.90;;;;;;5102457;27;20108;-81
2022/11/10 04:53:12;;;;;;;30.35;14.40;;;9.60;99.90;;;;;;5119183;27;20047;-80
2022/11/10 04:55:40;;;;;;;26.15;12.65;;;9.50;99.90;;;;;;5138859;27;20043;-80
2022/11/10 04:58:06;;;;;;;29.63;14.60;;;9.60;99.90;;;;;;5094132;27;20679;-80
2022/11/10 05:00:33;;;;;;;30.48;13.25;;;9.60;99.90;;;;;;5102863;27;20047;-81
2022/11/10 05:03:03;;;;;;;28.75;13.07;;;9.60;99.90;;;;;;5102277;27;20042;-80
2022/11/10 05:05:29;;;;;;;31.88;13.35;;;9.60;99.90;;;;;;5123446;27;20053;-80
2022/11/10 05:07:56;;;;;;;29.27;13.90;;;9.60;99.90;;;;;;5102371;27;20707;-80
2022/11/10 05:10:22;;;;;;;29.45;13.98;;;9.60;99.90;;;;;;5068118;27;20395;-80
2022/11/10 05:12:48;;;;;;;34.30;13.98;;;9.60;99.90;;;;;;5082893;27;20113;-80
2022/11/10 05:15:14;;;;;;;31.35;13.43;;;9.60;99.90;;;;;;5084820;27;20047;-80
2022/11/10 05:17:40;;;;;;;28.63;12.60;;;9.60;99.90;;;;;;5106212;27;20039;-80
2022/11/10 05:20:09;;;;;;;30.92;14.18;;;9.60;99.90;;;;;;5105714;27;20115;-80
2022/11/10 05:22:34;;;;;;;29.23;13.60;;;9.60;99.90;;;;;;5112736;27;20039;-80
2022/11/10 05:25:00;;;;;;;33.60;13.55;;;9.60;99.90;;;;;;5102397;27;20058;-80
2022/11/10 05:27:26;;;;;;;28.52;13.35;;;9.50;99.90;;;;;;5124383;27;20117;-80
2022/11/10 05:29:56;;;;;;;30.67;14.13;;;9.50;99.90;;;;;;5129414;27;20413;-80
2022/11/10 05:32:21;;;;;;;37.05;16.65;;;9.50;99.90;;;;;;5115488;27;20389;-80
2022/11/10 05:34:47;;;;;;;34.38;16.17;;;9.50;99.90;;;;;;5086182;27;20047;-81
2022/11/10 05:37:13;;;;;;;35.38;15.68;;;9.50;99.90;;;;;;5102108;27;20043;-79
2022/11/10 05:39:42;;;;;;;35.65;14.57;;;9.50;99.90;;;;;;5121338;27;20632;-80
2022/11/10 05:42:07;;;;;;;34.22;14.45;;;9.50;99.90;;;;;;5098871;27;20503;-79
2022/11/10 05:44:33;;;;;;;36.35;14.00;;;9.50;99.90;;;;;;5116459;27;20055;-80
2022/11/10 05:47:02;;;;;;;34.38;15.02;;;9.50;99.90;;;;;;5139107;27;20047;-80
2022/11/10 05:49:28;;;;;;;30.33;15.07;;;9.50;99.90;;;;;;5101515;27;20051;-80
2022/11/10 05:51:54;;;;;;;31.40;14.60;;;9.50;99.90;;;;;;5120080;27;20054;-80
2022/11/10 05:54:19;;;;;;;30.77;14.25;;;9.50;99.90;;;;;;5071066;27;20050;-80
2022/11/10 05:56:45;;;;;;;35.15;16.67;;;9.50;99.90;;;;;;5145911;27;20123;-80
2022/11/10 05:59:11;;;;;;;32.80;15.50;;;9.50;99.90;;;;;;5126633;27;20129;-80
2022/11/10 06:01:37;;;;;;;32.25;16.77;;;9.60;99.90;;;;;;5095422;27;20046;-81
2022/11/10 06:04:02;;;;;;;39.83;18.13;;;9.60;99.90;;;;;;5128733;27;20046;-81
2022/11/10 06:06:29;;;;;;;37.15;16.65;;;9.60;99.90;;;;;;5111211;27;20043;-80
2022/11/10 06:08:55;;;;;;;37.15;15.77;;;9.60;99.90;;;;;;5096710;27;20043;-80
2022/11/10 06:11:23;;;;;;;34.65;17.15;;;9.60;99.90;;;;;;5090635;27;20085;-80
2022/11/10 06:13:49;;;;;;;35.42;16.48;;;9.60;99.90;;;;;;5100822;27;20517;-80
2022/11/10 06:16:15;;;;;;;39.53;17.17;;;9.60;99.90;;;;;;5102834;27;20497;-80
2022/11/10 06:18:40;;;;;;;37.70;15.55;;;9.60;99.90;;;;;;5102627;27;20035;-81
2022/11/10 06:21:06;;;;;;;38.85;16.55;;;9.60;99.90;;;;;;5112032;27;20385;-81
2022/11/10 06:23:32;;;;;;;39.65;18.92;;;9.60;99.90;;;;;;5096862;27;20044;-80
2022/11/10 06:25:58;;;;;;;30.42;15.65;;;9.60;99.90;;;;;;5106443;27;20563;-80
2022/11/10 06:28:24;;;;;;;31.27;15.68;;;9.60;99.90;;;;;;5086909;27;20042;-80
2022/11/10 06:30:50;;;;;;;35.47;15.90;;;9.60;99.90;;;;;;5096033;27;20519;-81
2022/11/10 06:33:15;;;;;;;33.95;15.23;;;9.60;99.90;;;;;;5095652;27;20048;-73
2022/11/10 06:35:41;;;;;;;37.88;17.45;;;9.60;99.90;;;;;;5125363;27;20062;-80
2022/11/10 06:38:13;;;;;;;28.17;14.48;;;9.60;99.90;;;;;;5125593;27;20079;-81
2022/11/10 06:40:39;;;;;;;35.83;15.60;;;9.50;99.90;;;;;;5109917;27;20057;-80
2022/11/10 06:43:05;;;;;;;34.45;16.00;;;9.50;99.90;;;;;;5112305;27;20063;-80
2022/11/10 06:45:30;;;;;;;34.30;13.98;;;9.60;99.90;;;;;;5115848;27;20043;-80
2022/11/10 06:48:01;;;;;;;29.15;14.43;;;9.60;99.90;;;;;;5131915;27;20035;-82
2022/11/10 06:50:27;;;;;;;33.08;15.45;;;9.60;99.90;;;;;;5094999;27;20059;-80
2022/11/10 06:52:57;;;;;;;32.75;14.75;;;9.60;99.90;;;;;;5112529;27;20070;-81
2022/11/10 06:55:24;;;;;;;34.63;15.63;;;9.60;99.90;;;;;;5094311;27;20130;-81
2022/11/10 06:57:50;;;;;;;30.80;14.10;;;9.60;99.90;;;;;;5113933;27;20078;-81
2022/11/10 07:00:16;;;;;;;37.00;15.85;;;9.60;99.90;;;;;;5090776;27;20331;-81
2022/11/10 07:02:42;;;;;;;36.42;15.48;;;9.60;99.90;;;;;;5112531;27;20060;-81
2022/11/10 07:05:08;;;;;;;32.15;13.88;;;9.70;99.90;;;;;;5110067;27;20035;-80
2022/11/10 07:07:34;;;;;;;30.63;13.77;;;9.60;99.90;;;;;;5082424;27;20123;-81
2022/11/10 07:09:59;;;;;;;29.58;14.77;;;9.70;99.90;;;;;;5097552;27;20513;-81
2022/11/10 07:12:25;;;;;;;31.73;14.20;;;9.70;99.90;;;;;;5116215;27;20043;-81
2022/11/10 07:14:51;;;;;;;31.20;14.77;;;9.70;99.90;;;;;;5095641;27;20055;-81
2022/11/10 07:17:17;;;;;;;34.67;14.57;;;9.70;99.90;;;;;;5097232;27;20139;-81
2022/11/10 07:19:42;;;;;;;35.03;17.08;;;9.70;99.90;;;;;;5095783;27;20039;-81
2022/11/10 07:22:14;;;;;;;33.05;15.00;;;9.70;99.90;;;;;;5113021;27;20047;-80
2022/11/10 07:24:41;;;;;;;31.75;14.40;;;9.70;99.90;;;;;;5068914;27;20495;-85
2022/11/10 07:27:07;;;;;;;31.27;15.23;;;9.70;99.90;;;;;;5112374;27;20334;-86
2022/11/10 07:29:33;;;;;;;31.75;14.95;;;9.80;99.90;;;;;;5060916;27;20045;-84
2022/11/10 07:32:02;;;;;;;32.15;16.50;;;9.90;99.90;;;;;;5097218;27;20416;-84
2022/11/10 07:34:28;;;;;;;28.00;16.00;;;9.90;99.90;;;;;;5099553;27;20043;-85
2022/11/10 07:36:54;;;;;;;29.75;16.02;;;9.90;99.90;;;;;;5065030;27;20081;-84
2022/11/10 07:39:20;;;;;;;32.10;15.18;;;10.00;99.90;;;;;;5086418;27;20053;-85
2022/11/10 07:41:46;;;;;;;34.10;16.75;;;10.00;99.90;;;;;;5069468;27;20043;-84
2022/11/10 07:44:12;;;;;;;30.45;15.52;;;10.00;99.90;;;;;;5114656;27;20121;-84
2022/11/10 07:46:38;;;;;;;30.30;16.83;;;10.00;99.90;;;;;;5117635;27;20051;-84
2022/11/10 07:49:03;;;;;;;28.40;15.13;;;10.00;99.90;;;;;;5100002;27;20039;-84
2022/11/10 07:51:33;;;;;;;30.90;14.95;;;10.00;99.90;;;;;;5116935;27;20574;-84
2022/11/10 07:54:02;;;;;;;31.17;16.40;;;10.00;99.90;;;;;;5100611;27;20439;-84
2022/11/10 07:56:31;;;;;;;34.80;16.05;;;10.00;99.90;;;;;;5102762;27;20104;-85
2022/11/10 07:58:57;;;;;;;36.08;15.05;;;10.00;99.90;;;;;;5126831;27;20040;-84
2022/11/10 08:01:26;;;;;;;29.30;14.50;;;10.00;99.90;;;;;;5121662;27;20956;-85
2022/11/10 08:03:51;;;;;;;28.20;13.77;;;10.00;99.90;;;;;;5084121;27;20103;-84
2022/11/10 08:06:17;;;;;;;28.23;14.65;;;10.00;99.90;;;;;;5095977;27;20508;-83
2022/11/10 08:08:46;;;;;;;30.48;14.40;;;10.00;99.90;;;;;;5121624;27;20138;-85
2022/11/10 08:11:12;;;;;;;29.67;13.98;;;10.10;99.90;;;;;;5136792;27;20130;-85
2022/11/10 08:13:38;;;;;;;30.73;13.55;;;10.00;99.90;;;;;;5097956;27;20131;-84
2022/11/10 08:16:05;;;;;;;29.23;13.55;;;10.10;99.90;;;;;;5097018;27;20587;-86
2022/11/10 08:18:31;;;;;;;30.58;14.05;;;10.10;99.90;;;;;;5087781;27;20701;-86
2022/11/10 08:21:00;;;;;;;32.72;15.15;;;10.10;99.90;;;;;;5097621;27;20047;-85
2022/11/10 08:23:27;;;;;;;26.92;13.52;;;10.10;99.90;;;;;;5105548;27;20457;-85
2022/11/10 08:25:56;;;;;;;31.30;15.18;;;10.10;99.90;;;;;;5097925;27;20393;-85
2022/11/10 08:28:22;;;;;;;28.40;14.48;;;10.20;99.90;;;;;;5110421;27;20159;-78
2022/11/10 08:30:48;;;;;;;30.92;14.90;;;10.30;99.90;;;;;;5122745;27;20434;-86
2022/11/10 08:33:16;;;;;;;26.23;14.55;;;10.30;99.90;;;;;;5123170;27;20051;-84
2022/11/10 08:35:44;;;;;;;31.33;15.32;;;10.40;99.90;;;;;;5098994;27;20051;-84
2022/11/10 08:38:18;;;;;;;36.42;16.10;;;10.50;99.90;;;;;;5086264;27;20040;-88
2022/11/10 08:40:45;;;;;;;28.05;13.73;;;10.70;99.90;;;;;;5119686;27;20078;-83
2022/11/10 08:43:11;;;;;;;25.65;13.40;;;10.70;99.90;;;;;;5111963;27;20050;-84
2022/11/10 08:45:40;;;;;;;28.40;12.73;;;10.80;99.90;;;;;;5117288;27;20043;-82
2022/11/10 08:48:14;;;;;;;32.30;13.82;;;10.90;99.90;;;;;;5137377;27;20054;-85
2022/11/10 08:50:40;;;;;;;27.35;13.85;;;10.90;99.90;;;;;;5110198;27;20043;-83
2022/11/10 08:53:10;;;;;;;28.20;14.38;;;11.00;99.90;;;;;;5127058;27;20122;-86
2022/11/10 08:55:36;;;;;;;23.67;12.45;;;11.10;99.90;;;;;;5125333;27;20048;-85
2022/11/10 08:58:03;;;;;;;21.65;11.30;;;11.00;99.90;;;;;;5125879;27;20753;-85
2022/11/10 09:00:33;;;;;;;28.05;13.30;;;11.00;99.90;;;;;;5106896;27;20051;-83
2022/11/10 09:03:11;;;;;;;26.48;12.05;;;11.10;99.90;;;;;;5126107;27;20385;-83
2022/11/10 09:05:37;;;;;;;25.25;11.38;;;11.10;99.90;;;;;;5105682;27;20412;-77
2022/11/10 09:08:03;;;;;;;33.63;12.70;;;11.10;99.90;;;;;;5105843;27;20072;-84
2022/11/10 09:10:31;;;;;;;27.42;10.05;;;11.20;99.90;;;;;;5150786;27;20046;-77
2022/11/10 09:13:00;;;;;;;21.92;9.43;;;11.20;99.90;;;;;;5103587;27;20455;-76
2022/11/10 09:15:27;;;;;;;26.40;9.87;;;11.30;99.90;;;;;;5119438;27;20130;-77
2022/11/10 09:17:57;;;;;;;24.60;9.38;;;11.40;99.90;;;;;;5130537;27;20306;-77
2022/11/10 09:20:23;;;;;;;;;;;11.40;99.90;;;;;;5088289;27;20477;-84
2022/11/10 09:22:49;;;;;;;24.38;8.57;;;11.50;99.90;;;;;;5143641;27;19970;-84
2022/11/10 09:25:15;;;;;;;23.85;9.38;;;11.60;99.90;;;;;;5084901;27;20082;-85
2022/11/10 09:27:41;;;;;;;22.90;8.20;;;11.60;99.90;;;;;;5120623;27;20060;-86
2022/11/10 09:30:07;;;;;;;23.73;9.27;;;11.70;99.90;;;;;;5101470;27;20036;-85
2022/11/10 09:32:33;;;;;;;28.10;9.02;;;11.80;99.90;;;;;;5103692;27;20508;-83
2022/11/10 09:35:00;;;;;;;24.08;8.45;;;11.80;99.90;;;;;;5105235;27;20456;-85
2022/11/10 09:37:26;;;;;;;22.13;8.30;;;11.90;99.90;;;;;;5125979;27;20075;-84
2022/11/10 09:39:52;;;;;;;21.77;7.85;;;11.90;99.90;;;;;;5101177;27;20039;-85
2022/11/10 09:42:41;;;;;;;21.35;8.35;;;11.90;99.90;;;;;;5103698;27;20046;-85
2022/11/10 09:45:36;;;;;;;16.58;6.90;;;12.00;99.90;;;;;;5131898;27;20172;-86
2022/11/10 09:48:21;;;;;;;20.70;8.52;;;12.10;99.90;;;;;;5118377;27;20409;-85
2022/11/10 09:50:53;;;;;;;23.95;8.52;;;12.20;99.90;;;;;;5123765;27;20070;-85
2022/11/10 09:53:27;;;;;;;27.75;9.85;;;12.30;99.90;;;;;;5119390;27;20306;-86
2022/11/10 09:56:01;;;;;;;28.42;11.32;;;12.30;99.90;;;;;;5111957;27;20050;-85
2022/11/10 09:58:36;;;;;;;30.55;13.95;;;12.50;99.90;;;;;;5103221;27;20113;-84
2022/11/10 10:01:10;;;;;;;33.20;15.25;;;12.40;99.90;;;;;;5130289;27;20276;-84
2022/11/10 10:03:42;;;;;;;34.40;15.32;;;12.50;99.90;;;;;;5103700;27;21431;-83
2022/11/10 10:06:11;;;;;;;35.45;15.50;;;12.40;99.90;;;;;;5124742;27;20051;-84
2022/11/10 10:08:45;;;;;;;35.20;15.73;;;12.40;99.90;;;;;;5121834;27;20493;-84
2022/11/10 10:12:08;;;;;;;35.88;15.05;;;12.40;99.90;;;;;;5147384;27;20493;-85
2022/11/10 10:14:42;;;;;;;36.85;15.35;;;12.50;99.90;;;;;;5040533;28;20504;-82
2022/11/10 10:17:21;;;;;;;35.10;14.48;;;12.40;99.90;;;;;;5033726;28;20060;-84
2022/11/10 10:19:59;;;;;;;25.42;11.95;;;12.50;99.90;;;;;;5064237;28;20064;-85
2022/11/10 10:22:31;;;;;;;27.15;12.05;;;12.60;99.90;;;;;;5072936;28;20669;-87
2022/11/10 10:25:08;;;;;;;28.40;11.05;;;12.60;99.90;;;;;;5082761;28;20052;-85
2022/11/10 10:27:39;;;;;;;25.20;9.52;;;12.70;99.90;;;;;;5063552;28;20113;-85
2022/11/10 10:30:15;;;;;;;21.33;8.63;;;12.80;99.90;;;;;;5079321;28;20629;-84
2022/11/10 10:32:41;;;;;;;23.92;8.30;;;12.90;99.90;;;;;;5062347;28;20040;-85
2022/11/10 10:35:13;;;;;;;18.05;6.93;;;12.90;99.90;;;;;;5059052;28;20584;-85
2022/11/10 10:37:52;;;;;;;22.80;6.85;;;12.90;99.90;;;;;;5058477;28;20048;-85
2022/11/10 10:40:23;;;;;;;19.85;6.28;;;12.90;99.90;;;;;;5083395;28;20434;-84
2022/11/10 10:42:50;;;;;;;21.33;6.70;;;12.90;99.90;;;;;;5065152;28;20604;-77
2022/11/10 10:45:27;;;;;;;17.92;6.07;;;13.00;99.90;;;;;;5086589;28;20040;-84
2022/11/10 10:47:55;;;;;;;17.80;5.43;;;13.10;99.90;;;;;;5076207;28;20406;-84
2022/11/10 10:50:26;;;;;;;17.38;5.95;;;13.10;99.90;;;;;;5083634;28;20047;-77
2022/11/10 10:53:07;;;;;;;;;;;13.20;99.90;;;;;;5077880;28;20097;-83
2022/11/10 10:55:34;;;;;;;19.48;5.13;;;13.20;99.90;;;;;;5063336;28;19920;-85
2022/11/10 10:58:17;;;;;;;21.83;5.13;;;13.20;99.90;;;;;;5058287;28;20600;-86
2022/11/10 11:00:45;;;;;;;16.48;4.90;;;13.30;99.90;;;;;;5094601;28;20306;-84
2022/11/10 11:03:29;;;;;;;20.33;5.43;;;13.30;99.90;;;;;;5078599;28;20039;-83
2022/11/10 11:06:16;;;;;;;18.42;4.75;;;13.40;99.90;;;;;;5075864;28;20517;-85
2022/11/10 11:09:08;;;;;;;18.48;4.90;;;13.40;99.90;;;;;;5082592;28;20043;-84
2022/11/10 11:11:39;;;;;;;15.70;5.00;;;13.40;99.90;;;;;;5095928;27;20040;-76
2022/11/10 11:14:21;;;;;;;17.73;4.47;;;13.40;99.90;;;;;;5095039;27;20088;-78
2022/11/10 11:16:53;;;;;;;16.83;4.85;;;13.40;99.90;;;;;;5099947;27;20075;-85
2022/11/10 11:19:23;;;;;;;19.80;5.50;;;13.40;99.90;;;;;;5111320;27;20047;-84
2022/11/10 11:22:20;;;;;;;19.05;4.65;;;13.50;99.90;;;;;;5133578;27;20055;-85
2022/11/10 11:25:07;;;;;;;19.13;5.03;;;13.50;99.90;;;;;;5104360;27;20043;-83
2022/11/10 11:27:57;;;;;;;18.02;5.72;;;13.50;99.90;;;;;;5119994;27;20051;-83
2022/11/10 11:30:30;;;;;;;18.58;5.05;;;13.60;99.90;;;;;;5117574;27;20051;-84
2022/11/10 11:33:17;;;;;;;19.90;5.00;;;13.50;99.90;;;;;;5153520;27;20053;-85
2022/11/10 11:36:11;;;;;;;16.33;5.55;;;13.60;99.90;;;;;;5099194;27;20062;-83
2022/11/10 11:38:44;;;;;;;18.20;4.60;;;13.60;99.90;;;;;;5098833;27;20047;-76
2022/11/10 11:41:41;;;;;;;17.05;4.72;;;13.60;99.90;;;;;;5104510;27;20043;-77
2022/11/10 11:44:55;;;;;;;16.85;5.13;;;13.60;99.90;;;;;;5105778;27;20135;-85
2022/11/10 11:47:20;;;;;;;19.02;4.20;;;13.60;99.90;;;;;;5047962;27;20052;-84
2022/11/10 11:50:05;;;;;;;18.90;4.40;;;13.60;99.90;;;;;;5104762;27;20042;-84
2022/11/10 11:53:01;;;;;;;20.25;5.07;;;13.60;99.90;;;;;;5107875;27;20509;-83
2022/11/10 11:56:14;;;;;;;17.95;4.72;;;13.60;99.90;;;;;;5120946;27;20077;-77
2022/11/10 11:58:50;;;;;;;22.02;4.30;;;13.70;99.90;;;;;;5102099;27;20082;-83
2022/11/10 12:01:31;;;;;;;19.65;4.43;;;13.70;99.90;;;;;;5136670;27;20035;-85
2022/11/10 12:04:36;;;;;;;17.77;4.25;;;13.70;99.90;;;;;;5108409;27;20178;-84
2022/11/10 12:07:31;;;;;;;18.45;4.50;;;13.80;99.90;;;;;;5119114;27;20102;-84
2022/11/10 12:10:45;;;;;;;16.33;4.47;;;13.70;99.90;;;;;;5121109;27;20042;-84
2022/11/10 12:13:46;;;;;;;15.60;3.67;;;13.70;99.90;;;;;;5065707;27;20389;-84
2022/11/10 12:16:52;;;;;;;16.25;3.80;;;13.70;99.90;;;;;;5106565;27;20049;-84
2022/11/10 12:19:37;;;;;;;15.35;4.38;;;13.70;99.90;;;;;;5096364;27;20092;-81
2022/11/10 12:22:03;;;;;;;18.42;4.50;;;13.70;99.90;;;;;;5119282;27;20604;-84
2022/11/10 12:25:06;;;;;;;17.35;3.90;;;13.60;99.90;;;;;;5122289;27;20483;-84
2022/11/10 12:27:38;;;;;;;19.00;4.07;;;13.60;99.90;;;;;;5123930;27;20046;-85
2022/11/10 12:30:16;;;;;;;19.42;3.67;;;13.60;99.90;;;;;;5101315;27;20035;-85
2022/11/10 12:33:26;;;;;;;16.98;3.80;;;13.60;99.90;;;;;;5106987;27;20047;-84
2022/11/10 12:35:54;;;;;;;13.18;3.53;;;13.70;99.90;;;;;;5046057;28;20056;-85
2022/11/10 12:38:26;;;;;;;17.75;3.30;;;13.70;99.90;;;;;;5042467;28;20454;-85
2022/11/10 12:41:15;;;;;;;19.10;4.43;;;13.70;99.90;;;;;;5082803;27;21597;-85
2022/11/10 12:44:23;;;;;;;14.90;3.28;;;13.70;99.90;;;;;;5097356;27;20071;-84
2022/11/10 12:46:55;;;;;;;16.20;3.90;;;13.70;99.90;;;;;;5109721;27;20514;-85
2022/11/10 12:49:32;;;;;;;18.20;3.75;;;13.70;99.90;;;;;;5121921;27;20449;-84
2022/11/10 12:52:15;;;;;;;18.08;3.78;;;13.70;99.90;;;;;;5121810;27;20105;-84
2022/11/10 12:54:44;;;;;;;13.30;4.15;;;13.70;99.90;;;;;;5121664;27;20047;-85
2022/11/10 12:57:20;;;;;;;15.90;3.67;;;13.70;99.90;;;;;;5094874;27;20099;-85
2022/11/10 12:59:59;;;;;;;18.63;3.60;;;13.70;99.90;;;;;;5140931;27;20054;-85
2022/11/10 13:02:41;;;;;;;12.60;3.20;;;13.80;99.90;;;;;;5122510;27;20378;-84
2022/11/10 13:05:13;;;;;;;14.13;4.03;;;13.80;99.90;;;;;;5132862;27;20537;-85
2022/11/10 13:07:47;;;;;;;16.55;4.18;;;13.80;99.90;;;;;;5118570;27;20046;-84
2022/11/10 13:10:24;;;;;;;15.95;3.75;;;13.90;99.90;;;;;;5088583;27;20035;-84